createdAt,value
2019-04-30T00:00:59.643Z,95498.36
2019-04-30T00:03:59.248Z,95496.44
2019-04-30T00:06:28.875Z,95493.23
2019-04-30T00:08:55.059Z,95481.81
2019-04-30T00:11:25.035Z,95489.01
2019-04-30T00:13:55.290Z,95485.15
2019-04-30T00:16:21.713Z,95483.73
2019-04-30T00:18:58.149Z,95478.95
2019-04-30T00:21:18.838Z,95479.17
2019-04-30T00:23:46.462Z,95479.63
2019-04-30T00:26:16.989Z,95476.50
2019-04-30T00:28:46.338Z,95473.67
2019-04-30T00:31:12.278Z,95476.36
2019-04-30T00:33:39.619Z,95470.27
2019-04-30T00:36:06.918Z,95470.95
2019-04-30T00:38:37.752Z,95471.41
2019-04-30T00:41:06.833Z,95469.91
2019-04-30T00:43:35.376Z,95466.09
2019-04-30T00:46:02.702Z,95470.44
2019-04-30T00:48:31.312Z,95473.92
2019-04-30T00:50:58.842Z,95461.36
2019-04-30T00:53:26.327Z,95462.62
2019-04-30T00:55:57.203Z,95458.48
2019-04-30T00:58:28.796Z,95454.91
2019-04-30T01:01:15.286Z,95457.42
2019-04-30T01:03:49.610Z,95457.94
2019-04-30T01:06:17.279Z,95450.46
2019-04-30T01:08:46.155Z,95453.27
2019-04-30T01:11:15.328Z,95450.82
2019-04-30T01:13:50.176Z,95446.17
2019-04-30T01:16:13.914Z,95437.13
2019-04-30T01:18:41.262Z,95437.09
2019-04-30T01:21:11.192Z,95427.95
2019-04-30T01:23:43.170Z,95426.11
2019-04-30T01:26:08.727Z,95419.85
2019-04-30T01:28:36.199Z,95425.56
2019-04-30T01:31:03.662Z,95423.69
2019-04-30T01:33:34.563Z,95416.08
2019-04-30T01:36:04.203Z,95412.79
2019-04-30T01:38:29.562Z,95416.89
2019-04-30T01:40:56.902Z,95414.31
2019-04-30T01:43:31.558Z,95404.69
2019-04-30T01:45:53.477Z,95399.69
2019-04-30T01:48:20.802Z,95397.93
2019-04-30T01:50:48.841Z,95402.16
2019-04-30T01:53:16.502Z,95395.75
2019-04-30T01:55:53.866Z,95397.71
2019-04-30T01:58:33.435Z,95398.78
2019-04-30T02:01:04.179Z,95405.93
2019-04-30T02:03:32.528Z,95415.84
2019-04-30T02:05:59.818Z,95416.69
2019-04-30T02:08:27.159Z,95412.23
2019-04-30T02:10:54.480Z,95411.96
2019-04-30T02:13:21.839Z,95416.23
2019-04-30T02:15:49.376Z,95419.31
2019-04-30T02:18:16.827Z,95422.77
2019-04-30T02:20:44.142Z,95417.48
2019-04-30T02:23:11.457Z,95422.76
2019-04-30T02:25:39.918Z,95429.14
2019-04-30T02:28:08.949Z,95428.37
2019-04-30T02:30:36.356Z,95426.75
2019-04-30T02:33:03.704Z,95426.86
2019-04-30T02:35:53.160Z,95427.28
2019-04-30T02:38:24.847Z,95426.36
2019-04-30T02:40:52.684Z,95425.36
2019-04-30T02:43:22.311Z,95422.91
2019-04-30T02:45:50.994Z,95423.92
2019-04-30T02:48:19.535Z,95422.27
2019-04-30T02:50:49.122Z,95428.95
2019-04-30T02:54:10.050Z,95432.61
2019-04-30T02:56:40.077Z,95426.67
2019-04-30T02:59:06.704Z,95423.42
2019-04-30T03:01:34.041Z,95415.72
2019-04-30T03:04:01.343Z,95423.20
2019-04-30T03:06:30.295Z,95418.38
2019-04-30T03:09:00.718Z,95416.61
2019-04-30T03:11:29.902Z,95414.84
2019-04-30T03:13:56.253Z,95414.17
2019-04-30T03:16:30.327Z,95422.09
2019-04-30T03:19:19.622Z,95420.60
2019-04-30T03:21:51.667Z,95420.78
2019-04-30T03:24:20.253Z,95415.22
2019-04-30T03:26:49.972Z,95407.63
2019-04-30T03:29:17.093Z,95409.27
2019-04-30T03:31:45.675Z,95408.27
2019-04-30T03:34:23.170Z,95402.56
2019-04-30T03:36:42.400Z,95412.87
2019-04-30T03:39:10.928Z,95410.27
2019-04-30T03:41:41.468Z,95403.59
2019-04-30T03:44:21.071Z,95402.92
2019-04-30T03:46:39.791Z,95395.41
2019-04-30T03:49:06.365Z,95401.26
2019-04-30T03:51:33.658Z,95391.80
2019-04-30T03:54:01.019Z,95386.95
2019-04-30T03:56:29.845Z,95390.67
2019-04-30T03:59:00.139Z,95392.23
2019-04-30T04:01:46.227Z,95390.94
2019-04-30T04:04:33.063Z,95396.91
2019-04-30T04:07:31.813Z,95397.75
2019-04-30T04:10:21.213Z,95395.41
2019-04-30T04:12:49.880Z,95391.77
2019-04-30T04:15:19.772Z,95397.54
2019-04-30T04:17:46.620Z,95393.81
2019-04-30T04:20:14.079Z,95385.92
2019-04-30T04:22:41.342Z,95392.25
2019-04-30T04:25:12.723Z,95400.51
2019-04-30T04:27:39.270Z,95396.14
2019-04-30T04:30:07.020Z,95400.33
2019-04-30T04:32:34.371Z,95400.34
2019-04-30T04:35:01.654Z,95406.77
2019-04-30T04:37:30.210Z,95414.01
2019-04-30T04:39:59.522Z,95414.03
2019-04-30T04:42:32.529Z,95417.94
2019-04-30T04:44:56.326Z,95423.53
2019-04-30T04:47:23.634Z,95423.30
2019-04-30T04:49:53.879Z,95421.08
2019-04-30T04:52:21.654Z,95425.12
2019-04-30T04:54:50.690Z,95419.61
2019-04-30T04:57:22.393Z,95424.06
2019-04-30T04:59:49.908Z,95423.52
2019-04-30T05:02:49.767Z,95426.03
2019-04-30T05:05:19.344Z,95429.54
2019-04-30T05:07:48.492Z,95428.23
2019-04-30T05:10:15.750Z,95419.59
2019-04-30T05:12:43.078Z,95420.35
2019-04-30T05:15:10.698Z,95406.23
2019-04-30T05:17:39.750Z,95405.36
2019-04-30T05:20:09.808Z,95408.06
2019-04-30T05:22:38.903Z,95413.63
2019-04-30T05:25:08.672Z,95416.81
2019-04-30T05:27:35.876Z,95417.55
2019-04-30T05:30:03.714Z,95408.47
2019-04-30T05:32:31.074Z,95407.34
2019-04-30T05:34:58.733Z,95406.84
2019-04-30T05:37:26.299Z,95408.95
2019-04-30T05:39:53.632Z,95411.96
2019-04-30T05:42:21.014Z,95423.31
2019-04-30T05:44:49.713Z,95419.25
2019-04-30T05:47:19.371Z,95423.22
2019-04-30T05:49:48.713Z,95415.72
2019-04-30T05:52:15.758Z,95407.89
2019-04-30T05:54:43.114Z,95411.58
2019-04-30T05:57:10.438Z,95412.06
2019-04-30T05:59:38.807Z,95420.07
2019-04-30T06:02:06.476Z,95417.55
2019-04-30T06:04:33.793Z,95415.03
2019-04-30T06:07:01.166Z,95419.98
2019-04-30T06:09:48.621Z,95431.48
2019-04-30T06:12:29.243Z,95422.50
2019-04-30T06:15:19.399Z,95424.94
2019-04-30T06:17:59.973Z,95428.23
2019-04-30T06:20:20.979Z,95435.51
2019-04-30T06:22:52.115Z,95436.52
2019-04-30T06:25:30.459Z,95441.63
2019-04-30T06:27:48.872Z,95438.86
2019-04-30T06:30:16.882Z,95439.68
2019-04-30T06:32:44.389Z,95441.20
2019-04-30T06:35:12.059Z,95451.26
2019-04-30T06:37:39.474Z,95453.66
2019-04-30T06:40:09.385Z,95445.94
2019-04-30T06:42:36.782Z,95439.63
2019-04-30T06:45:06.510Z,95437.50
2019-04-30T06:47:34.016Z,95436.26
2019-04-30T06:50:01.540Z,95428.34
2019-04-30T06:52:29.352Z,95431.21
2019-04-30T06:54:56.977Z,95444.81
2019-04-30T06:57:24.303Z,95441.66
2019-04-30T06:59:51.709Z,95439.59
2019-04-30T07:02:19.745Z,95437.73
2019-04-30T07:04:49.099Z,95436.89
2019-04-30T07:07:19.313Z,95441.43
2019-04-30T07:09:55.944Z,95453.28
2019-04-30T07:12:40.139Z,95452.56
2019-04-30T07:15:08.739Z,95453.00
2019-04-30T07:17:36.330Z,95447.03
2019-04-30T07:20:03.994Z,95446.57
2019-04-30T07:22:39.790Z,95446.67
2019-04-30T07:25:00.635Z,95443.42
2019-04-30T07:27:31.934Z,95441.17
2019-04-30T07:29:57.201Z,95446.56
2019-04-30T07:32:24.571Z,95451.22
2019-04-30T07:34:51.973Z,95454.28
2019-04-30T07:37:24.182Z,95455.33
2019-04-30T07:39:49.367Z,95458.75
2019-04-30T07:42:19.051Z,95454.36
2019-04-30T07:44:46.224Z,95456.36
2019-04-30T07:47:14.160Z,95463.77
2019-04-30T07:49:49.883Z,95463.88
2019-04-30T07:52:11.806Z,95468.55
2019-04-30T07:54:39.875Z,95462.66
2019-04-30T07:57:07.180Z,95471.97
2019-04-30T07:59:34.496Z,95469.00
2019-04-30T08:02:10.194Z,95472.91
2019-04-30T08:04:52.083Z,95474.30
2019-04-30T08:07:20.148Z,95471.17
2019-04-30T08:09:49.378Z,95462.52
2019-04-30T08:12:25.898Z,95454.70
2019-04-30T08:14:46.426Z,95463.35
2019-04-30T08:17:13.714Z,95465.59
2019-04-30T08:19:41.213Z,95464.19
2019-04-30T08:22:09.571Z,95467.15
2019-04-30T08:24:38.990Z,95463.81
2019-04-30T08:27:06.374Z,95463.88
2019-04-30T08:29:33.716Z,95460.59
2019-04-30T08:32:01.082Z,95466.83
2019-04-30T08:34:29.221Z,95467.78
2019-04-30T08:37:12.447Z,95455.91
2019-04-30T08:39:29.543Z,95458.50
2019-04-30T08:42:00.004Z,95460.39
2019-04-30T08:44:27.218Z,95465.73
2019-04-30T08:46:54.522Z,95466.56
2019-04-30T08:49:22.111Z,95460.41
2019-04-30T08:51:50.275Z,95456.86
2019-04-30T08:54:19.835Z,95451.59
2019-04-30T08:56:47.380Z,95447.88
2019-04-30T08:59:14.662Z,95454.27
2019-04-30T09:01:41.999Z,95461.04
2019-04-30T09:04:10.482Z,95464.65
2019-04-30T09:06:38.981Z,95472.80
2019-04-30T09:09:13.202Z,95469.41
2019-04-30T09:11:51.642Z,95464.97
2019-04-30T09:14:09.821Z,95463.33
2019-04-30T09:16:39.207Z,95463.16
2019-04-30T09:19:06.414Z,95474.84
2019-04-30T09:21:33.805Z,95474.01
2019-04-30T09:24:01.162Z,95467.84
2019-04-30T09:26:29.038Z,95464.09
2019-04-30T09:28:56.541Z,95452.25
2019-04-30T09:31:23.922Z,95448.73
2019-04-30T09:33:51.323Z,95444.59
2019-04-30T09:36:20.733Z,95449.20
2019-04-30T09:38:48.606Z,95450.47
2019-04-30T09:41:16.073Z,95452.42
2019-04-30T09:43:43.469Z,95449.08
2019-04-30T09:46:21.991Z,95451.56
2019-04-30T09:48:40.141Z,95457.07
2019-04-30T09:51:09.826Z,95461.55
2019-04-30T09:53:36.734Z,95457.77
2019-04-30T09:56:04.130Z,95458.37
2019-04-30T09:58:31.488Z,95448.31
2019-04-30T10:00:59.359Z,95448.64
2019-04-30T10:03:27.144Z,95452.59
2019-04-30T10:05:54.803Z,95445.61
2019-04-30T10:08:22.608Z,95447.95
2019-04-30T10:11:09.752Z,95452.52
2019-04-30T10:13:37.379Z,95451.20
2019-04-30T10:16:12.186Z,95444.07
2019-04-30T10:18:39.527Z,95448.70
2019-04-30T10:21:06.901Z,95451.22
2019-04-30T10:23:36.143Z,95444.52
2019-04-30T10:26:03.593Z,95444.70
2019-04-30T10:28:33.134Z,95444.19
2019-04-30T10:31:00.496Z,95437.47
2019-04-30T10:33:28.711Z,95429.75
2019-04-30T10:35:56.212Z,95434.55
2019-04-30T10:38:23.568Z,95426.39
2019-04-30T10:40:50.983Z,95436.21
2019-04-30T10:43:19.783Z,95434.83
2019-04-30T10:45:48.573Z,95430.00
2019-04-30T10:48:16.117Z,95438.17
2019-04-30T10:50:43.433Z,95434.87
2019-04-30T10:53:12.398Z,95425.86
2019-04-30T10:55:39.928Z,95428.48
2019-04-30T10:58:07.266Z,95419.87
2019-04-30T11:00:38.962Z,95419.87
2019-04-30T11:03:17.207Z,95416.42
2019-04-30T11:05:39.269Z,95410.83
2019-04-30T11:08:06.193Z,95414.44
2019-04-30T11:10:33.633Z,95410.59
2019-04-30T11:13:00.958Z,95407.65
2019-04-30T11:15:29.229Z,95403.24
2019-04-30T11:17:56.872Z,95401.03
2019-04-30T11:20:24.447Z,95395.10
2019-04-30T11:22:54.509Z,95399.59
2019-04-30T11:25:21.577Z,95391.66
2019-04-30T11:27:50.556Z,95390.75
2019-04-30T11:30:23.991Z,95395.09
2019-04-30T11:32:48.045Z,95390.21
2019-04-30T11:35:15.761Z,95400.70
2019-04-30T11:37:43.054Z,95402.61
2019-04-30T11:40:12.482Z,95401.09
2019-04-30T11:42:39.753Z,95402.05
2019-04-30T11:45:08.601Z,95399.34
2019-04-30T11:47:37.186Z,95396.22
2019-04-30T11:50:12.867Z,95390.50
2019-04-30T11:52:40.202Z,95391.02
2019-04-30T11:55:09.644Z,95382.92
2019-04-30T11:57:37.248Z,95384.02
2019-04-30T12:00:08.817Z,95383.42
2019-04-30T12:02:45.408Z,95374.84
2019-04-30T12:05:14.482Z,95372.59
2019-04-30T12:07:53.484Z,95374.00
2019-04-30T12:10:43.292Z,95378.78
2019-04-30T12:13:26.743Z,95381.87
2019-04-30T12:15:55.449Z,95383.91
2019-04-30T12:18:22.785Z,95396.29
2019-04-30T12:20:50.722Z,95395.56
2019-04-30T12:23:19.006Z,95392.31
2019-04-30T12:25:46.475Z,95385.38
2019-04-30T12:28:13.806Z,95394.69
2019-04-30T12:30:41.105Z,95390.14
2019-04-30T12:33:09.106Z,95393.26
2019-04-30T12:35:36.635Z,95392.33
2019-04-30T12:38:03.941Z,95382.13
2019-04-30T12:40:32.339Z,95381.05
2019-04-30T12:43:00.005Z,95377.59
2019-04-30T12:45:29.314Z,95363.03
2019-04-30T12:48:00.350Z,95366.61
2019-04-30T12:50:35.245Z,95365.44
2019-04-30T12:53:06.842Z,95357.19
2019-04-30T12:56:00.144Z,95358.82
2019-04-30T12:58:25.623Z,95364.84
2019-04-30T13:00:52.939Z,95362.44
2019-04-30T13:03:20.290Z,95363.23
2019-04-30T13:05:50.307Z,95356.19
2019-04-30T13:08:17.595Z,95363.53
2019-04-30T13:10:46.478Z,95360.81
2019-04-30T13:13:14.818Z,95356.75
2019-04-30T13:15:42.743Z,95367.69
2019-04-30T13:18:10.070Z,95364.48
2019-04-30T13:20:39.097Z,95372.23
2019-04-30T13:23:08.654Z,95363.77
2019-04-30T13:25:48.358Z,95369.33
2019-04-30T13:28:09.940Z,95374.81
2019-04-30T13:30:39.602Z,95368.18
2019-04-30T13:33:20.442Z,95367.42
2019-04-30T13:35:48.877Z,95361.73
2019-04-30T13:38:30.767Z,95368.53
2019-04-30T13:41:18.728Z,95366.97
2019-04-30T13:44:10.102Z,95360.80
2019-04-30T13:46:39.458Z,95369.56
2019-04-30T13:49:06.689Z,95368.05
2019-04-30T13:51:34.014Z,95375.80
2019-04-30T13:54:01.433Z,95393.86
2019-04-30T13:56:28.853Z,95393.34
2019-04-30T14:36:50.282Z,95367.33
2019-04-30T14:39:20.117Z,95370.62
2019-04-30T14:41:50.810Z,95366.73
2019-04-30T14:44:21.389Z,95362.48
2019-04-30T14:46:58.477Z,95367.13
2019-04-30T14:50:01.910Z,95370.16
2019-04-30T14:52:24.252Z,95365.12
2019-04-30T14:55:25.972Z,95371.98
2019-04-30T14:58:31.145Z,95375.09
2019-04-30T15:01:19.356Z,95366.59
2019-04-30T15:03:46.933Z,95360.61
2019-04-30T15:06:14.289Z,95362.92
2019-04-30T15:08:41.659Z,95363.30
2019-04-30T15:11:09.172Z,95363.05
2019-04-30T15:13:36.571Z,95366.73
2019-04-30T15:16:04.117Z,95366.64
2019-04-30T15:18:31.457Z,95367.59
2019-04-30T15:29:16.257Z,95369.12
2019-04-30T15:31:43.775Z,95376.26
2019-04-30T15:34:12.947Z,95366.73
2019-04-30T15:36:41.124Z,95368.29
2019-04-30T15:39:43.510Z,95368.91
2019-04-30T15:42:12.525Z,95365.80
2019-04-30T15:44:42.637Z,95365.19
2019-04-30T15:47:09.715Z,95369.83
2019-04-30T15:49:37.119Z,95368.30
2019-04-30T15:52:04.764Z,95368.78
2019-04-30T15:54:32.177Z,95366.73
2019-04-30T15:57:00.494Z,95359.59
2019-04-30T15:59:45.681Z,95366.39
2019-04-30T16:02:21.322Z,95373.66
2019-04-30T16:05:08.232Z,95379.95
2019-04-30T16:07:40.743Z,95372.58
2019-04-30T16:10:28.529Z,95376.26
2019-04-30T16:13:02.935Z,95369.84
2019-04-30T16:15:30.387Z,95383.38
2019-04-30T16:17:59.457Z,95377.14
2019-04-30T16:20:29.857Z,95378.81
2019-04-30T16:22:56.111Z,95377.27
2019-04-30T16:25:23.511Z,95380.81
2019-04-30T16:27:51.674Z,95379.14
2019-04-30T16:30:19.632Z,95377.95
2019-04-30T16:32:50.541Z,95381.62
2019-04-30T16:35:16.671Z,95382.69
2019-04-30T16:37:44.015Z,95379.14
2019-04-30T16:40:12.912Z,95375.78
2019-04-30T16:42:40.241Z,95381.26
2019-04-30T16:45:09.324Z,95384.23
2019-04-30T16:47:36.934Z,95378.69
2019-04-30T16:50:04.931Z,95383.88
2019-04-30T16:52:33.343Z,95376.00
2019-04-30T16:55:00.757Z,95372.24
2019-04-30T16:57:30.409Z,95371.11
2019-04-30T16:59:59.389Z,95373.85
2019-04-30T17:02:31.916Z,95371.64
2019-04-30T17:05:04.762Z,95366.30
2019-04-30T17:07:43.687Z,95376.73
2019-04-30T17:10:29.354Z,95379.84
2019-04-30T17:13:16.451Z,95383.78
2019-04-30T17:15:44.031Z,95376.77
2019-04-30T17:18:12.227Z,95389.70
2019-04-30T17:20:40.585Z,95388.86
2019-04-30T17:23:09.472Z,95387.31
2019-04-30T17:25:37.120Z,95377.99
2019-04-30T17:28:04.983Z,95381.36
2019-04-30T17:30:32.503Z,95383.50
2019-04-30T17:33:00.654Z,95388.73
2019-04-30T17:35:28.905Z,95388.19
2019-04-30T17:37:56.923Z,95396.95
2019-04-30T17:40:24.595Z,95403.13
2019-04-30T17:42:52.241Z,95401.16
2019-04-30T17:45:20.056Z,95391.93
2019-04-30T17:47:48.888Z,95392.63
2019-04-30T17:50:18.792Z,95409.83
2019-04-30T17:52:46.599Z,95400.80
2019-04-30T17:55:14.739Z,95394.43
2019-04-30T17:57:42.352Z,95405.41
2019-04-30T18:00:19.323Z,95403.00
2019-04-30T18:02:44.362Z,95402.88
2019-04-30T18:05:12.281Z,95402.34
2019-04-30T18:07:40.082Z,95404.27
2019-04-30T18:10:13.060Z,95408.45
2019-04-30T18:12:40.753Z,95418.98
2019-04-30T18:15:14.648Z,95428.78
2019-04-30T18:17:44.247Z,95432.34
2019-04-30T18:20:30.215Z,95422.78
2019-04-30T18:23:23.865Z,95431.16
2019-04-30T18:25:59.187Z,95433.05
2019-04-30T18:28:29.164Z,95437.58
2019-04-30T18:30:59.751Z,95442.14
2019-04-30T18:33:27.479Z,95446.06
2019-04-30T18:35:59.655Z,95444.97
2019-04-30T18:38:31.147Z,95448.73
2019-04-30T18:40:59.480Z,95451.81
2019-04-30T18:43:28.884Z,95455.09
2019-04-30T18:46:01.874Z,95461.33
2019-04-30T18:48:30.504Z,95459.66
2019-04-30T18:51:15.959Z,95457.09
2019-04-30T18:53:33.149Z,95461.96
2019-04-30T18:56:01.375Z,95461.50
2019-04-30T18:58:43.125Z,95448.00
2019-04-30T19:01:12.085Z,95443.56
2019-04-30T19:03:43.005Z,95433.66
2019-04-30T19:06:23.907Z,95433.61
2019-04-30T19:09:09.665Z,95424.34
2019-04-30T19:11:46.427Z,95426.47
2019-04-30T19:14:36.719Z,95429.54
2019-04-30T19:17:49.748Z,95427.78
2019-04-30T19:20:22.613Z,95437.21
2019-04-30T19:22:53.401Z,95454.40
2019-04-30T19:25:23.883Z,95453.55
2019-04-30T19:27:51.873Z,95464.64
2019-04-30T19:30:21.391Z,95469.23
2019-04-30T19:32:54.349Z,95465.41
2019-04-30T19:35:26.947Z,95472.32
2019-04-30T19:38:00.424Z,95477.95
2019-04-30T19:40:28.653Z,95486.38
2019-04-30T19:42:56.985Z,95485.11
2019-04-30T19:45:30.553Z,95492.47
2019-04-30T19:48:02.292Z,95488.81
2019-04-30T19:50:31.315Z,95489.64
2019-04-30T19:52:59.169Z,95496.58
2019-04-30T19:55:28.601Z,95500.16
2019-04-30T19:58:01.462Z,95504.61
2019-04-30T20:00:34.692Z,95512.17
2019-04-30T20:03:02.732Z,95510.47
2019-04-30T20:05:32.627Z,95517.11
2019-04-30T20:08:02.964Z,95513.44
2019-04-30T20:10:30.972Z,95512.31
2019-04-30T20:12:58.903Z,95514.97
2019-04-30T20:15:29.843Z,95519.14
2019-04-30T20:18:03.682Z,95504.89
2019-04-30T20:20:39.907Z,95511.16
2019-04-30T20:23:08.050Z,95500.42
2019-04-30T20:25:36.419Z,95498.45
2019-04-30T20:28:04.930Z,95490.65
2019-04-30T20:30:33.045Z,95490.60
2019-04-30T20:33:00.845Z,95496.03
2019-04-30T20:35:29.276Z,95496.35
2019-04-30T20:38:34.872Z,95494.77
2019-04-30T20:41:03.570Z,95491.45
2019-04-30T20:43:33.394Z,95500.24
2019-04-30T20:46:02.767Z,95507.89
2019-04-30T20:48:32.236Z,95500.06
2019-04-30T20:51:01.553Z,95493.64
2019-04-30T20:53:29.311Z,95488.02
2019-04-30T20:55:59.192Z,95490.41
2019-04-30T20:58:28.385Z,95488.74
2019-04-30T21:01:03.605Z,95487.86
2019-04-30T21:03:29.562Z,95482.86
2019-04-30T21:06:00.345Z,95484.27
2019-04-30T21:08:28.374Z,95481.37
2019-04-30T21:10:55.895Z,95475.30
2019-04-30T21:13:23.348Z,95479.63
2019-04-30T21:15:50.760Z,95487.48
2019-04-30T21:18:19.548Z,95492.91
2019-04-30T21:20:47.298Z,95494.50
2019-04-30T21:23:14.719Z,95496.41
2019-04-30T21:25:42.149Z,95501.02
2019-04-30T21:28:10.213Z,95497.37
2019-04-30T21:30:37.631Z,95504.09
2019-04-30T21:33:26.118Z,95501.13
2019-04-30T21:35:58.772Z,95504.08
2019-04-30T21:38:26.216Z,95510.19
2019-04-30T21:40:53.876Z,95509.80
2019-04-30T21:43:21.193Z,95510.14
2019-04-30T21:45:49.374Z,95519.81
2019-04-30T21:48:18.970Z,95519.50
2019-04-30T21:50:46.047Z,95521.93
2019-04-30T21:53:13.403Z,95521.94
2019-04-30T21:55:40.767Z,95525.94
2019-04-30T21:58:09.567Z,95521.47
2019-04-30T22:00:55.651Z,95523.98
2019-04-30T22:03:22.992Z,95524.34
2019-04-30T22:05:50.421Z,95518.16
2019-04-30T22:08:18.885Z,95516.61
2019-04-30T22:10:46.350Z,95515.81
2019-04-30T22:13:13.774Z,95513.55
2019-04-30T22:15:41.130Z,95512.73
2019-04-30T22:18:08.485Z,95506.99
2019-04-30T22:20:36.074Z,95503.38
2019-04-30T22:23:03.491Z,95510.59
2019-04-30T22:25:30.846Z,95506.41
2019-04-30T22:27:58.213Z,95496.22
2019-04-30T22:30:25.672Z,95494.70
2019-04-30T22:32:53.060Z,95494.47
2019-04-30T22:35:38.911Z,95501.52
2019-04-30T22:38:09.260Z,95500.73
2019-04-30T22:40:38.839Z,95501.16
2019-04-30T22:43:06.121Z,95494.83
2019-04-30T22:45:40.529Z,95509.06
2019-04-30T22:48:08.863Z,95498.73
2019-04-30T22:50:36.535Z,95497.69
2019-04-30T22:53:03.920Z,95502.83
2019-04-30T22:55:31.228Z,95498.49
2019-04-30T22:57:58.553Z,95502.39
2019-04-30T23:00:35.911Z,95499.47
2019-04-30T23:03:06.997Z,95489.23
2019-04-30T23:05:34.370Z,95496.45
2019-04-30T23:08:01.781Z,95497.55
2019-04-30T23:10:29.144Z,95498.71
2019-04-30T23:12:56.489Z,95491.22
2019-04-30T23:15:23.985Z,95491.11
2019-04-30T23:17:51.325Z,95497.66
2019-04-30T23:20:18.631Z,95499.70
2019-04-30T23:22:46.018Z,95502.36
2019-04-30T23:25:13.547Z,95497.79
2019-04-30T23:27:40.886Z,95493.39
2019-04-30T23:30:08.601Z,95496.56
2019-04-30T23:32:35.973Z,95497.49
2019-04-30T23:35:03.591Z,95492.81
2019-04-30T23:37:30.915Z,95497.56
2019-04-30T23:40:26.793Z,95489.27
2019-04-30T23:42:54.211Z,95490.06
2019-04-30T23:45:21.650Z,95497.27
2019-04-30T23:47:49.130Z,95491.34
2019-04-30T23:50:16.456Z,95487.80
2019-04-30T23:52:43.851Z,95485.92
2019-04-30T23:55:11.574Z,95487.47
2019-04-30T23:57:38.872Z,95489.20
